Conneaut, Ohio
Current Conditions -  °F | °C
As of 1:53 PM on Saturday 20 Dec 2014 (Local Time) from KHZY Reporting Station
Overcast Overcast  
Wind Chill: 31°   Ceiling: 2300
Heat Index: 31°   Visibility: 10mi
Dew Point: 21°   Wind: 0mph
Humidity: 67%   Direction: NA
Pressure: 30.25"   Gusts: NA
Location:  41.94°N, 80.56°W
Report Text: KHZY 201853Z AUTO 00000KT 10SM OVC023 M01/M06 A3025 RMK AO2 SLP253 T10061061
Loading
Personal Weather Stations






























Interactive Weather Map New forecast layout! Learn more

10-Day Weather Forecast

Advertisements
Track Severe Weather on mobile